createdAt,value
2023-06-23T00:00:46.321Z,15.45
2023-06-23T00:03:14.280Z,13.23
2023-06-23T00:05:41.762Z,15.25
2023-06-23T00:08:08.905Z,14.40
2023-06-23T00:10:36.035Z,14.50
2023-06-23T00:13:04.026Z,12.82
2023-06-23T00:15:31.606Z,13.60
2023-06-23T00:18:01.783Z,14.02
2023-06-23T00:20:29.095Z,15.68
2023-06-23T00:22:56.670Z,12.70
2023-06-23T00:25:24.499Z,17.33
2023-06-23T00:27:51.699Z,13.48
2023-06-23T00:30:21.514Z,18.95
2023-06-23T00:32:49.246Z,15.40
2023-06-23T00:35:16.477Z,18.85
2023-06-23T00:37:44.729Z,15.68
2023-06-23T00:40:12.268Z,17.80
2023-06-23T00:42:54.158Z,20.30
2023-06-23T00:45:22.361Z,21.10
2023-06-23T00:47:50.309Z,21.23
2023-06-23T00:50:21.600Z,26.92
2023-06-23T00:52:53.088Z,20.73
2023-06-23T00:57:57.441Z,23.98
2023-06-23T01:00:29.233Z,22.20
2023-06-23T01:03:03.225Z,23.60
2023-06-23T01:05:37.543Z,24.92
2023-06-23T01:08:29.188Z,32.28
2023-06-23T01:11:10.090Z,23.48
2023-06-23T01:13:50.221Z,25.70
2023-06-23T01:16:19.188Z,27.08
2023-06-23T01:19:00.322Z,30.55
2023-06-23T01:21:40.251Z,27.30
2023-06-23T01:24:30.534Z,35.75
2023-06-23T01:27:28.017Z,28.85
2023-06-23T01:29:56.826Z,26.50
2023-06-23T01:32:33.260Z,29.45
2023-06-23T01:35:13.445Z,30.60
2023-06-23T01:37:43.690Z,35.83
2023-06-23T01:40:15.145Z,28.20
2023-06-23T01:42:47.870Z,32.42
2023-06-23T01:45:16.063Z,31.85
2023-06-23T01:47:50.391Z,34.13
2023-06-23T01:50:22.536Z,34.00
2023-06-23T01:52:51.239Z,39.50
2023-06-23T01:55:19.467Z,42.13
2023-06-23T01:57:48.020Z,42.00
2023-06-23T02:00:19.355Z,40.75
2023-06-23T02:02:49.412Z,43.80
2023-06-23T02:05:19.191Z,40.55
2023-06-23T02:07:49.184Z,42.38
2023-06-23T02:10:18.010Z,39.30
2023-06-23T02:12:45.973Z,43.15
2023-06-23T02:15:16.166Z,36.80
2023-06-23T02:17:45.337Z,38.85
2023-06-23T02:20:18.062Z,43.30
2023-06-23T02:22:50.751Z,35.45
2023-06-23T02:25:21.894Z,34.33
2023-06-23T02:27:49.817Z,43.92
2023-06-23T02:30:19.162Z,36.55
2023-06-23T02:32:49.812Z,35.72
2023-06-23T02:35:17.432Z,30.83
2023-06-23T02:37:54.440Z,32.97
2023-06-23T02:40:27.028Z,32.25
2023-06-23T02:43:17.732Z,28.60
2023-06-23T02:45:49.738Z,32.42
2023-06-23T02:48:32.162Z,31.63
2023-06-23T02:51:01.121Z,31.48
2023-06-23T02:53:36.581Z,27.02
2023-06-23T02:56:08.853Z,31.63
2023-06-23T02:58:36.762Z,35.72
2023-06-23T03:01:04.392Z,31.27
2023-06-23T03:03:35.032Z,34.38
2023-06-23T03:06:02.487Z,30.23
2023-06-23T03:08:30.060Z,29.50
2023-06-23T03:10:57.324Z,33.88
2023-06-23T03:13:24.533Z,30.13
2023-06-23T03:15:56.170Z,35.78
2023-06-23T03:18:26.444Z,34.80
2023-06-23T03:20:54.271Z,30.92
2023-06-23T03:23:22.845Z,37.30
2023-06-23T03:25:49.974Z,38.90
2023-06-23T03:28:26.690Z,31.88
2023-06-23T03:31:09.119Z,33.50
2023-06-23T03:33:41.868Z,35.60
2023-06-23T03:36:20.929Z,29.98
2023-06-23T03:39:05.255Z,28.65
2023-06-23T03:41:33.129Z,31.77
2023-06-23T03:44:19.088Z,32.20
2023-06-23T04:18:40.718Z,28.73
2023-06-23T04:21:08.803Z,24.48
2023-06-23T04:23:36.909Z,34.58
2023-06-23T04:26:07.104Z,28.30
2023-06-23T04:28:35.537Z,24.67
2023-06-23T04:31:08.852Z,22.23
2023-06-23T04:33:36.981Z,24.13
2023-06-23T04:36:16.019Z,17.15
2023-06-23T04:38:54.168Z,17.52
2023-06-23T04:41:23.774Z,18.73
2023-06-23T04:43:54.473Z,18.25
2023-06-23T04:49:19.470Z,17.63
2023-06-23T04:51:50.038Z,16.70
2023-06-23T04:54:30.510Z,13.65
2023-06-23T04:57:03.152Z,17.98
2023-06-23T04:59:36.027Z,19.48
2023-06-23T05:02:04.521Z,17.23
2023-06-23T05:04:33.867Z,16.15
2023-06-23T05:07:03.246Z,20.55
2023-06-23T05:09:31.395Z,20.10
2023-06-23T05:11:59.166Z,21.05
2023-06-23T05:14:27.408Z,16.13
2023-06-23T05:16:57.853Z,15.88
2023-06-23T05:19:26.768Z,18.80
2023-06-23T05:21:55.811Z,16.52
2023-06-23T05:24:23.653Z,19.38
2023-06-23T05:26:51.097Z,21.48
2023-06-23T05:29:19.163Z,16.63
2023-06-23T05:31:46.591Z,16.10
2023-06-23T05:34:16.240Z,15.45
2023-06-23T05:36:43.555Z,14.18
2023-06-23T05:39:12.563Z,12.95
2023-06-23T05:41:39.840Z,16.02
2023-06-23T05:44:06.986Z,14.52
2023-06-23T05:46:34.629Z,14.55
2023-06-23T05:49:15.264Z,12.68
2023-06-23T05:51:43.263Z,12.35
2023-06-23T05:54:12.760Z,16.20
2023-06-23T05:56:52.286Z,18.80
2023-06-23T05:59:40.916Z,14.27
2023-06-23T06:02:12.111Z,12.32
2023-06-23T06:04:43.778Z,11.75
2023-06-23T06:07:11.683Z,13.00
2023-06-23T06:09:39.322Z,13.02
2023-06-23T06:12:07.113Z,11.23
2023-06-23T06:14:34.466Z,17.92
2023-06-23T06:17:02.132Z,15.10
2023-06-23T06:19:30.059Z,11.95
2023-06-23T06:21:58.306Z,9.05
2023-06-23T06:24:26.265Z,9.90
2023-06-23T06:26:57.891Z,13.38
2023-06-23T06:29:25.507Z,13.70
2023-06-23T06:31:53.097Z,15.30
2023-06-23T06:34:21.545Z,15.10
2023-06-23T06:36:49.274Z,13.30
2023-06-23T06:39:17.337Z,12.70
2023-06-23T06:41:46.413Z,14.43
2023-06-23T06:44:14.219Z,13.40
2023-06-23T06:46:43.602Z,14.40
2023-06-23T06:49:12.358Z,11.52
2023-06-23T06:51:41.987Z,10.82
2023-06-23T06:54:09.199Z,10.15
2023-06-23T06:56:36.988Z,10.60
2023-06-23T06:59:04.701Z,10.43
2023-06-23T07:01:32.187Z,11.73
2023-06-23T07:03:59.678Z,10.95
2023-06-23T07:06:27.895Z,15.45
2023-06-23T07:08:55.044Z,11.55
2023-06-23T07:11:22.546Z,12.10
2023-06-23T07:13:49.713Z,15.45
2023-06-23T07:16:16.857Z,10.20
2023-06-23T07:18:43.976Z,10.57
2023-06-23T07:21:11.951Z,9.80
2023-06-23T07:23:39.529Z,10.95
2023-06-23T07:26:06.833Z,11.50
2023-06-23T07:28:33.972Z,11.38
2023-06-23T07:31:01.285Z,11.60
2023-06-23T07:33:28.621Z,9.75
2023-06-23T07:35:55.791Z,11.00
2023-06-23T07:38:22.973Z,12.68
2023-06-23T07:40:50.184Z,11.82
2023-06-23T07:43:17.382Z,11.40
2023-06-23T07:45:44.555Z,13.85
2023-06-23T07:48:11.884Z,12.82
2023-06-23T07:50:39.270Z,12.13
2023-06-23T07:53:06.395Z,19.88
2023-06-23T07:55:33.551Z,13.98
2023-06-23T07:58:00.731Z,9.65
2023-06-23T08:00:29.690Z,11.73
2023-06-23T08:02:57.166Z,12.07
2023-06-23T08:05:25.130Z,12.35
2023-06-23T08:07:52.536Z,17.83
2023-06-23T08:10:19.756Z,12.50
2023-06-23T08:12:46.974Z,11.20
2023-06-23T08:15:14.281Z,11.45
2023-06-23T08:17:42.247Z,10.57
2023-06-23T08:20:10.462Z,10.63
2023-06-23T08:22:41.031Z,16.33
2023-06-23T08:25:09.441Z,14.13
2023-06-23T08:27:36.673Z,11.48
2023-06-23T08:30:04.804Z,13.23
2023-06-23T08:32:32.043Z,12.27
2023-06-23T08:34:59.656Z,10.95
2023-06-23T08:37:26.837Z,14.32
2023-06-23T08:39:54.039Z,15.02
2023-06-23T08:42:22.245Z,14.13
2023-06-23T08:44:49.739Z,14.68
2023-06-23T08:47:20.841Z,12.13
2023-06-23T08:49:50.637Z,11.38
2023-06-23T08:52:18.877Z,13.10
2023-06-23T08:54:46.067Z,13.10
2023-06-23T08:57:14.288Z,11.38
2023-06-23T08:59:42.154Z,12.02
2023-06-23T09:02:09.644Z,13.60
2023-06-23T09:04:37.106Z,11.77
2023-06-23T09:07:04.424Z,11.95
2023-06-23T09:09:35.007Z,12.55
2023-06-23T09:12:02.621Z,12.27
2023-06-23T09:14:31.945Z,9.77
2023-06-23T09:16:59.970Z,10.15
2023-06-23T09:19:34.197Z,11.68
2023-06-23T09:24:45.209Z,10.15
2023-06-23T09:27:12.785Z,14.85
2023-06-23T09:29:39.975Z,9.95
2023-06-23T09:32:10.494Z,10.63
2023-06-23T09:34:40.174Z,11.85
2023-06-23T09:37:15.860Z,12.18
2023-06-23T09:39:49.689Z,13.73
2023-06-23T09:42:17.373Z,10.82
2023-06-23T09:44:46.955Z,10.98
2023-06-23T09:47:19.992Z,10.80
2023-06-23T09:49:49.961Z,9.65
2023-06-23T09:52:26.591Z,16.30
2023-06-23T09:54:53.721Z,11.93
2023-06-23T09:57:21.922Z,11.55
2023-06-23T09:59:53.900Z,11.60
2023-06-23T10:02:27.213Z,10.02
2023-06-23T10:05:06.733Z,12.25
2023-06-23T10:07:34.984Z,10.65
2023-06-23T10:12:41.701Z,12.90
2023-06-23T10:15:10.333Z,14.73
2023-06-23T10:17:37.858Z,14.07
2023-06-23T10:20:06.779Z,15.43
2023-06-23T10:22:35.834Z,8.93
2023-06-23T10:25:03.117Z,14.43
2023-06-23T10:27:31.229Z,12.00
2023-06-23T10:30:01.765Z,15.18
2023-06-23T10:32:36.273Z,13.15
2023-06-23T10:35:11.014Z,11.75
2023-06-23T10:37:46.197Z,11.15
2023-06-23T10:40:20.160Z,11.02
2023-06-23T10:42:50.974Z,14.55
2023-06-23T10:45:18.733Z,12.02
2023-06-23T10:47:46.608Z,11.00
2023-06-23T10:50:14.631Z,8.90
2023-06-23T10:52:43.706Z,14.32
2023-06-23T10:55:51.296Z,14.80
2023-06-23T10:58:20.078Z,13.07
2023-06-23T11:01:01.539Z,10.13
2023-06-23T11:03:39.829Z,8.07
2023-06-23T11:06:13.098Z,14.25
2023-06-23T11:08:43.296Z,10.30
2023-06-23T11:11:12.745Z,10.95
2023-06-23T11:13:50.073Z,12.63
2023-06-23T11:16:18.807Z,10.10
2023-06-23T11:19:01.761Z,14.02
2023-06-23T11:21:35.699Z,18.10
2023-06-23T11:24:22.312Z,13.30
2023-06-23T11:26:54.146Z,10.55
2023-06-23T11:29:25.728Z,13.02
2023-06-23T11:32:17.309Z,11.68
2023-06-23T11:37:32.886Z,9.13
2023-06-23T11:40:01.191Z,8.32
2023-06-23T11:42:28.884Z,12.77
2023-06-23T11:44:57.258Z,12.98
2023-06-23T11:47:26.738Z,11.52
2023-06-23T11:49:55.505Z,11.23
2023-06-23T11:52:23.216Z,6.38
2023-06-23T11:54:52.591Z,11.75
2023-06-23T11:57:23.362Z,9.13
2023-06-23T11:59:54.131Z,11.43
2023-06-23T12:02:22.138Z,9.25
2023-06-23T12:04:50.997Z,9.30
2023-06-23T12:07:18.348Z,8.88
2023-06-23T12:09:45.596Z,8.52
2023-06-23T12:12:16.327Z,7.43
2023-06-23T12:14:45.347Z,7.03
2023-06-23T12:17:14.056Z,8.32
2023-06-23T12:19:44.200Z,7.28
2023-06-23T12:22:19.915Z,7.20
2023-06-23T12:24:47.703Z,6.95
2023-06-23T12:27:15.325Z,7.07
2023-06-23T12:29:42.620Z,9.93
2023-06-23T12:32:10.803Z,6.43
2023-06-23T12:34:43.945Z,8.70
2023-06-23T12:37:17.411Z,7.22
2023-06-23T12:39:55.980Z,9.07
2023-06-23T12:42:24.163Z,7.88
2023-06-23T12:44:52.321Z,8.80
2023-06-23T12:47:20.661Z,8.95
2023-06-23T12:49:49.322Z,8.35
2023-06-23T12:52:16.778Z,6.53
2023-06-23T12:54:44.771Z,9.00
2023-06-23T12:57:12.231Z,8.23
2023-06-23T12:59:39.560Z,8.57
2023-06-23T13:02:07.737Z,6.85
2023-06-23T13:04:34.949Z,8.05
2023-06-23T13:07:02.189Z,5.75
2023-06-23T13:09:29.319Z,7.47
2023-06-23T13:11:56.543Z,10.40
2023-06-23T13:14:24.620Z,5.88
2023-06-23T13:16:52.180Z,11.05
2023-06-23T13:19:19.356Z,9.15
2023-06-23T13:21:48.521Z,12.50
2023-06-23T13:24:15.754Z,7.07
2023-06-23T13:26:48.632Z,7.95
2023-06-23T13:29:17.351Z,7.10
2023-06-23T13:31:46.785Z,6.35
2023-06-23T13:34:14.152Z,5.68
2023-06-23T13:36:41.323Z,10.68
2023-06-23T13:39:09.096Z,7.43
2023-06-23T13:41:36.234Z,8.63
2023-06-23T13:44:03.420Z,9.65
2023-06-23T13:46:30.590Z,9.38
2023-06-23T13:48:58.027Z,10.10
2023-06-23T13:51:25.289Z,7.43
2023-06-23T13:53:52.581Z,7.88
2023-06-23T13:56:19.706Z,7.80
2023-06-23T13:58:46.918Z,7.97
2023-06-23T14:01:14.109Z,10.55
2023-06-23T14:03:41.431Z,8.05
2023-06-23T14:06:11.526Z,16.30
2023-06-23T14:08:42.511Z,6.07
2023-06-23T14:11:09.691Z,12.45
2023-06-23T14:13:36.824Z,9.50
2023-06-23T14:16:04.977Z,8.20
2023-06-23T14:18:32.310Z,9.32
2023-06-23T14:20:59.716Z,12.93
2023-06-23T14:23:26.924Z,9.80
2023-06-23T14:25:55.210Z,10.35
2023-06-23T14:28:22.574Z,8.98
2023-06-23T14:30:49.887Z,9.85
2023-06-23T14:33:18.208Z,10.18
2023-06-23T14:35:45.830Z,12.73
2023-06-23T14:38:13.019Z,10.68
2023-06-23T14:40:41.552Z,11.70
2023-06-23T14:43:09.050Z,7.70
2023-06-23T14:45:40.754Z,8.95
2023-06-23T14:48:09.133Z,11.25
2023-06-23T14:50:37.122Z,10.10
2023-06-23T14:53:04.311Z,9.32
2023-06-23T14:55:34.596Z,8.70
2023-06-23T14:58:04.320Z,9.20
2023-06-23T15:00:32.033Z,10.70
2023-06-23T15:02:59.286Z,7.85
2023-06-23T15:05:26.709Z,11.13
2023-06-23T15:07:56.749Z,8.80
2023-06-23T15:10:23.862Z,7.68
2023-06-23T15:12:51.089Z,7.97
2023-06-23T15:15:18.316Z,9.88
2023-06-23T15:17:45.492Z,8.60
2023-06-23T15:20:13.030Z,7.47
2023-06-23T15:22:40.241Z,9.60
2023-06-23T15:25:10.438Z,9.00
2023-06-23T15:27:40.638Z,9.90
2023-06-23T15:30:13.712Z,7.43
2023-06-23T15:32:41.006Z,8.20
2023-06-23T15:35:08.924Z,13.98
2023-06-23T15:37:42.658Z,9.23
2023-06-23T15:40:12.267Z,11.90
2023-06-23T15:42:40.078Z,9.18
2023-06-23T15:45:10.901Z,9.85
2023-06-23T15:47:38.076Z,13.90
2023-06-23T15:50:05.795Z,13.10
2023-06-23T15:52:32.941Z,11.80
2023-06-23T15:55:00.136Z,9.02
2023-06-23T15:57:30.018Z,9.43
2023-06-23T15:59:57.995Z,15.25
2023-06-23T16:02:27.197Z,8.25
2023-06-23T16:04:54.460Z,7.70
2023-06-23T16:07:22.159Z,12.23
2023-06-23T16:09:49.448Z,7.47
2023-06-23T16:12:16.589Z,8.90
2023-06-23T16:14:43.872Z,8.93
2023-06-23T16:17:11.052Z,11.07
2023-06-23T16:19:38.278Z,9.13
2023-06-23T16:22:06.616Z,9.05
2023-06-23T16:24:34.047Z,11.32
2023-06-23T16:27:01.291Z,9.00
2023-06-23T16:29:28.559Z,12.85
2023-06-23T16:31:58.640Z,9.15
2023-06-23T16:34:26.060Z,8.48
2023-06-23T16:36:53.213Z,9.38
2023-06-23T16:39:22.237Z,16.35
2023-06-23T16:41:53.462Z,7.10
2023-06-23T16:46:48.038Z,7.95
2023-06-23T16:49:15.229Z,11.30
2023-06-23T16:51:42.454Z,8.57
2023-06-23T16:54:09.846Z,7.43
2023-06-23T16:56:37.108Z,8.32
2023-06-23T16:59:10.843Z,10.63
2023-06-23T17:01:38.026Z,8.90
2023-06-23T17:04:05.383Z,9.88
2023-06-23T17:06:32.625Z,9.40
2023-06-23T17:09:00.768Z,11.55
2023-06-23T17:11:28.178Z,10.25
2023-06-23T17:13:55.321Z,9.32
2023-06-23T17:16:22.652Z,8.90
2023-06-23T17:18:49.791Z,10.50
2023-06-23T17:21:17.026Z,7.57
2023-06-23T17:23:44.276Z,12.10
2023-06-23T17:26:12.057Z,9.27
2023-06-23T17:28:42.360Z,6.38
2023-06-23T17:31:09.748Z,7.72
2023-06-23T17:33:36.915Z,9.95
2023-06-23T17:36:04.531Z,15.88
2023-06-23T17:38:31.624Z,7.60
2023-06-23T17:40:58.751Z,13.57
2023-06-23T17:43:25.877Z,6.32
2023-06-23T17:45:53.027Z,15.65
2023-06-23T17:48:21.985Z,8.80
2023-06-23T17:50:49.193Z,7.40
2023-06-23T17:53:16.388Z,11.70
2023-06-23T17:55:44.017Z,9.27
2023-06-23T17:58:11.391Z,9.40
2023-06-23T18:00:41.112Z,8.70
2023-06-23T18:03:08.374Z,8.30
2023-06-23T18:05:36.040Z,7.60
2023-06-23T18:08:03.693Z,7.68
2023-06-23T18:10:31.220Z,11.95
2023-06-23T18:12:58.554Z,8.73
2023-06-23T18:15:25.687Z,9.40
2023-06-23T18:17:52.966Z,13.63
2023-06-23T18:20:22.039Z,10.45
2023-06-23T18:22:49.508Z,13.60
2023-06-23T18:25:17.480Z,10.40
2023-06-23T18:27:44.616Z,5.72
2023-06-23T18:30:12.787Z,10.40
2023-06-23T18:32:40.390Z,7.93
2023-06-23T18:35:08.993Z,10.30
2023-06-23T18:37:36.294Z,7.20
2023-06-23T18:40:03.801Z,8.68
2023-06-23T18:42:32.412Z,7.28
2023-06-23T18:44:59.975Z,7.80
2023-06-23T18:47:28.110Z,6.88
2023-06-23T18:49:55.710Z,8.95
2023-06-23T18:52:23.115Z,9.35
2023-06-23T18:54:50.575Z,10.98
2023-06-23T18:57:17.755Z,10.73
2023-06-23T18:59:45.193Z,8.13
2023-06-23T19:02:12.323Z,10.73
2023-06-23T19:04:39.600Z,10.70
2023-06-23T19:07:07.572Z,7.07
2023-06-23T19:09:34.788Z,10.65
2023-06-23T19:12:02.001Z,9.07
2023-06-23T19:14:29.139Z,8.15
2023-06-23T19:16:56.749Z,10.35
2023-06-23T19:19:26.032Z,8.35
2023-06-23T19:21:53.423Z,8.52
2023-06-23T19:24:20.694Z,8.48
2023-06-23T19:26:47.887Z,9.07
2023-06-23T19:29:15.202Z,12.48
2023-06-23T19:31:42.405Z,10.25
2023-06-23T19:34:09.598Z,10.40
2023-06-23T19:36:36.776Z,9.02
2023-06-23T19:39:05.149Z,12.60
2023-06-23T19:41:32.389Z,7.85
2023-06-23T19:43:59.540Z,8.50
2023-06-23T19:46:26.779Z,10.77
2023-06-23T19:48:56.350Z,9.38
2023-06-23T19:51:23.558Z,9.25
2023-06-23T19:53:50.867Z,9.52
2023-06-23T19:56:18.283Z,16.63
2023-06-23T19:58:45.525Z,11.40
2023-06-23T20:01:12.709Z,12.48
2023-06-23T20:03:39.847Z,15.25
2023-06-23T20:06:07.028Z,14.05
2023-06-23T20:08:34.183Z,12.43
2023-06-23T20:11:01.331Z,11.68
2023-06-23T20:13:28.713Z,12.20
2023-06-23T20:15:55.932Z,16.85
2023-06-23T20:18:23.079Z,12.82
2023-06-23T20:20:50.439Z,15.43
2023-06-23T20:23:17.641Z,7.70
2023-06-23T20:25:44.900Z,8.38
2023-06-23T20:28:13.341Z,10.07
2023-06-23T20:30:40.505Z,11.52
2023-06-23T20:33:07.769Z,9.85
2023-06-23T20:35:34.964Z,7.80
2023-06-23T20:38:10.458Z,10.70
2023-06-23T20:40:37.873Z,12.02
2023-06-23T20:43:05.060Z,9.10
2023-06-23T20:45:32.319Z,11.38
2023-06-23T20:47:59.691Z,10.85
2023-06-23T20:50:26.955Z,10.77
2023-06-23T20:52:54.086Z,7.22
2023-06-23T20:55:21.226Z,8.57
2023-06-23T20:57:48.409Z,11.63
2023-06-23T21:00:16.118Z,13.50
2023-06-23T21:02:43.397Z,8.43
2023-06-23T21:05:11.047Z,10.25
2023-06-23T21:07:38.187Z,11.25
2023-06-23T21:10:12.753Z,7.35
2023-06-23T21:12:43.165Z,13.32
2023-06-23T21:15:10.311Z,12.02
2023-06-23T21:17:39.189Z,9.85
2023-06-23T21:20:08.040Z,13.35
2023-06-23T21:22:35.199Z,10.15
2023-06-23T21:25:02.744Z,9.77
2023-06-23T21:27:30.158Z,7.03
2023-06-23T21:29:58.039Z,12.82
2023-06-23T21:32:25.295Z,14.90
2023-06-23T21:34:52.597Z,8.77
2023-06-23T21:37:22.556Z,12.57
2023-06-23T21:39:49.726Z,8.45
2023-06-23T21:42:16.851Z,11.32
2023-06-23T21:44:47.174Z,11.43
2023-06-23T21:47:14.367Z,11.18
2023-06-23T21:49:44.619Z,10.60
2023-06-23T21:52:14.287Z,14.98
2023-06-23T21:54:41.548Z,13.27
2023-06-23T21:57:11.374Z,13.35
2023-06-23T21:59:39.157Z,13.80
2023-06-23T22:02:06.704Z,11.32
2023-06-23T22:04:33.954Z,15.63
2023-06-23T22:07:01.250Z,12.10
2023-06-23T22:09:28.500Z,17.95
2023-06-23T22:11:56.953Z,13.20
2023-06-23T22:14:26.647Z,14.20
2023-06-23T22:16:57.637Z,13.20
2023-06-23T22:19:24.965Z,14.93
2023-06-23T22:21:54.415Z,15.70
2023-06-23T22:24:24.266Z,20.33
2023-06-23T22:26:53.966Z,16.65
2023-06-23T22:29:21.105Z,9.98
2023-06-23T22:31:48.347Z,16.08
2023-06-23T22:34:15.494Z,11.32
2023-06-23T22:36:45.651Z,19.25
2023-06-23T22:39:12.964Z,10.98
2023-06-23T22:41:40.277Z,12.35
2023-06-23T22:44:07.791Z,16.58
2023-06-23T22:46:35.008Z,12.27
2023-06-23T22:49:08.293Z,10.27
2023-06-23T22:51:42.789Z,16.00
2023-06-23T22:54:14.045Z,19.08
2023-06-23T22:56:42.450Z,10.02
2023-06-23T22:59:09.884Z,16.35
2023-06-23T23:01:39.670Z,14.45
2023-06-23T23:04:07.277Z,14.95
2023-06-23T23:06:35.036Z,12.30
2023-06-23T23:09:02.319Z,16.83
2023-06-23T23:11:29.958Z,12.75
2023-06-23T23:13:57.112Z,11.63
2023-06-23T23:16:26.965Z,15.63
2023-06-23T23:18:54.850Z,13.10
2023-06-23T23:21:22.954Z,16.27
2023-06-23T23:23:53.863Z,20.00
2023-06-23T23:26:25.638Z,17.90
2023-06-23T23:28:52.786Z,16.13
2023-06-23T23:31:20.062Z,14.07
2023-06-23T23:33:47.576Z,14.82
2023-06-23T23:36:14.758Z,20.85
2023-06-23T23:38:41.898Z,14.82
2023-06-23T23:41:09.108Z,18.30
2023-06-23T23:43:36.235Z,14.00
2023-06-23T23:46:03.400Z,14.05
2023-06-23T23:48:30.583Z,12.73
2023-06-23T23:50:57.911Z,14.57
2023-06-23T23:53:25.102Z,19.17
2023-06-23T23:55:52.484Z,14.68
2023-06-23T23:58:19.866Z,15.88
